createdAt,value
2023-04-27T00:01:11.054Z,99.90
2023-04-27T00:03:38.444Z,99.90
2023-04-27T00:06:05.577Z,99.90
2023-04-27T00:08:32.200Z,99.90
2023-04-27T00:10:58.823Z,99.90
2023-04-27T00:13:25.489Z,99.90
2023-04-27T00:15:52.290Z,99.90
2023-04-27T00:18:19.294Z,99.90
2023-04-27T00:20:45.927Z,99.90
2023-04-27T00:23:12.570Z,99.90
2023-04-27T00:25:39.218Z,99.90
2023-04-27T00:28:06.126Z,99.90
2023-04-27T00:30:32.717Z,99.90
2023-04-27T00:32:59.377Z,99.90
2023-04-27T00:35:26.039Z,99.90
2023-04-27T00:37:55.059Z,99.90
2023-04-27T00:40:21.821Z,99.90
2023-04-27T00:42:48.390Z,99.90
2023-04-27T00:45:15.039Z,99.90
2023-04-27T00:47:42.529Z,99.90
2023-04-27T00:50:10.512Z,99.90
2023-04-27T00:52:37.602Z,99.90
2023-04-27T00:55:05.259Z,99.90
2023-04-27T00:57:33.236Z,99.90
2023-04-27T01:00:01.453Z,99.90
2023-04-27T01:02:29.312Z,99.90
2023-04-27T01:04:56.341Z,99.90
2023-04-27T01:07:26.723Z,99.90
2023-04-27T01:09:53.377Z,99.90
2023-04-27T01:12:20.023Z,99.90
2023-04-27T01:14:46.578Z,99.90
2023-04-27T01:17:14.045Z,99.90
2023-04-27T01:19:41.112Z,99.90
2023-04-27T01:22:08.009Z,99.90
2023-04-27T01:24:34.735Z,99.90
2023-04-27T01:27:02.540Z,99.90
2023-04-27T01:29:29.186Z,99.90
2023-04-27T01:31:55.807Z,99.90
2023-04-27T01:34:22.415Z,99.90
2023-04-27T01:36:49.017Z,99.90
2023-04-27T01:39:16.313Z,99.90
2023-04-27T01:41:42.947Z,99.90
2023-04-27T01:44:09.660Z,99.90
2023-04-27T01:46:36.360Z,99.90
2023-04-27T01:49:03.222Z,99.90
2023-04-27T01:51:29.813Z,99.90
2023-04-27T01:53:56.427Z,99.90
2023-04-27T01:56:23.010Z,99.90
2023-04-27T01:58:49.633Z,99.90
2023-04-27T02:01:16.274Z,99.90
2023-04-27T02:03:43.097Z,99.90
2023-04-27T02:06:09.808Z,99.90
2023-04-27T02:08:36.884Z,99.90
2023-04-27T02:11:03.493Z,99.90
2023-04-27T02:13:30.054Z,99.90
2023-04-27T02:15:56.677Z,99.90
2023-04-27T02:18:24.340Z,99.90
2023-04-27T02:20:51.221Z,99.90
2023-04-27T02:23:17.800Z,99.90
2023-04-27T02:25:46.725Z,99.90
2023-04-27T02:28:14.046Z,99.90
2023-04-27T02:30:41.368Z,99.90
2023-04-27T02:33:08.091Z,99.90
2023-04-27T02:35:35.046Z,99.90
2023-04-27T02:38:01.669Z,99.90
2023-04-27T02:40:28.406Z,99.90
2023-04-27T02:42:55.062Z,99.90
2023-04-27T02:45:21.690Z,99.90
2023-04-27T02:47:48.972Z,99.90
2023-04-27T02:50:15.728Z,99.90
2023-04-27T02:52:42.314Z,99.90
2023-04-27T02:55:09.222Z,99.90
2023-04-27T02:57:36.001Z,99.90
2023-04-27T03:00:05.060Z,99.90
2023-04-27T03:02:32.140Z,99.90
2023-04-27T03:04:59.423Z,99.90
2023-04-27T03:07:25.995Z,99.90
2023-04-27T03:09:52.557Z,99.90
2023-04-27T03:12:19.124Z,99.90
2023-04-27T03:14:45.772Z,99.90
2023-04-27T03:17:12.395Z,99.90
2023-04-27T03:19:38.978Z,99.90
2023-04-27T03:22:05.683Z,99.90
2023-04-27T03:24:33.324Z,99.90
2023-04-27T03:26:59.961Z,99.90
2023-04-27T03:29:26.518Z,99.90
2023-04-27T03:31:53.233Z,99.90
2023-04-27T03:34:21.660Z,99.90
2023-04-27T03:36:48.460Z,99.90
2023-04-27T03:39:15.367Z,99.90
2023-04-27T03:41:42.506Z,99.90
2023-04-27T03:44:09.112Z,99.90
2023-04-27T03:46:35.991Z,99.90
2023-04-27T03:49:02.821Z,99.90
2023-04-27T03:51:32.165Z,99.90
2023-04-27T03:53:59.031Z,99.90
2023-04-27T03:56:25.808Z,99.90
2023-04-27T03:58:52.493Z,99.90
2023-04-27T04:01:19.078Z,99.90
2023-04-27T04:03:47.703Z,99.90
2023-04-27T04:06:14.460Z,99.90
2023-04-27T04:08:41.069Z,99.90
2023-04-27T04:11:07.645Z,99.90
2023-04-27T04:13:35.945Z,99.90
2023-04-27T04:16:04.598Z,99.90
2023-04-27T04:18:31.339Z,99.90
2023-04-27T04:20:58.249Z,99.90
2023-04-27T04:23:25.000Z,99.90
2023-04-27T04:25:51.705Z,99.90
2023-04-27T04:28:18.329Z,99.90
2023-04-27T04:30:45.531Z,99.90
2023-04-27T04:33:12.204Z,99.90
2023-04-27T04:35:39.735Z,99.90
2023-04-27T04:38:06.309Z,99.90
2023-04-27T04:40:32.958Z,99.90
2023-04-27T04:42:59.507Z,99.90
2023-04-27T04:45:26.977Z,99.90
2023-04-27T04:47:54.402Z,99.90
2023-04-27T04:50:21.231Z,99.90
2023-04-27T04:52:47.837Z,99.90
2023-04-27T04:55:15.092Z,99.90
2023-04-27T04:57:41.735Z,99.90
2023-04-27T05:00:18.024Z,99.90
2023-04-27T05:02:44.809Z,99.90
2023-04-27T05:05:11.514Z,99.90
2023-04-27T05:07:38.129Z,99.90
2023-04-27T05:10:05.385Z,99.90
2023-04-27T05:12:32.043Z,99.90
2023-04-27T05:14:58.616Z,99.90
2023-04-27T05:17:25.390Z,99.90
2023-04-27T05:19:52.037Z,99.90
2023-04-27T05:22:18.640Z,99.90
2023-04-27T05:24:45.298Z,99.90
2023-04-27T05:27:13.961Z,99.90
2023-04-27T05:29:41.017Z,99.90
2023-04-27T05:32:07.676Z,99.90
2023-04-27T05:34:34.352Z,99.90
2023-04-27T05:37:01.328Z,99.90
2023-04-27T05:39:27.909Z,99.90
2023-04-27T05:41:54.549Z,99.90
2023-04-27T05:44:21.433Z,99.90
2023-04-27T05:46:48.113Z,99.90
2023-04-27T05:49:14.925Z,99.90
2023-04-27T05:51:41.748Z,99.90
2023-04-27T05:54:08.523Z,99.90
2023-04-27T05:56:35.453Z,99.90
2023-04-27T05:59:02.901Z,99.90
2023-04-27T06:01:29.687Z,99.90
2023-04-27T06:04:01.179Z,99.90
2023-04-27T06:06:28.654Z,99.90
2023-04-27T06:08:55.263Z,99.90
2023-04-27T06:11:22.088Z,99.90
2023-04-27T06:13:48.631Z,99.90
2023-04-27T06:16:15.912Z,99.90
2023-04-27T06:18:42.515Z,99.90
2023-04-27T06:21:09.139Z,99.90
2023-04-27T06:23:35.853Z,99.90
2023-04-27T06:26:02.532Z,99.90
2023-04-27T06:28:29.152Z,99.90
2023-04-27T06:30:55.796Z,99.90
2023-04-27T06:33:22.380Z,99.90
2023-04-27T06:35:48.934Z,99.90
2023-04-27T06:38:15.858Z,99.90
2023-04-27T06:40:42.448Z,99.90
2023-04-27T06:43:09.042Z,99.90
2023-04-27T06:45:35.979Z,98.80
2023-04-27T06:48:03.001Z,98.60
2023-04-27T06:50:30.454Z,98.50
2023-04-27T06:52:57.086Z,98.00
2023-04-27T06:55:23.919Z,97.70
2023-04-27T06:57:50.539Z,97.10
2023-04-27T07:00:17.514Z,97.40
2023-04-27T07:02:44.188Z,97.90
2023-04-27T07:05:10.930Z,97.60
2023-04-27T07:07:37.655Z,96.50
2023-04-27T07:10:04.572Z,97.20
2023-04-27T07:12:31.286Z,97.00
2023-04-27T07:14:57.880Z,95.80
2023-04-27T07:17:24.465Z,94.30
2023-04-27T07:19:51.311Z,93.70
2023-04-27T07:22:18.249Z,92.40
2023-04-27T07:24:44.895Z,92.90
2023-04-27T07:27:11.478Z,93.40
2023-04-27T07:29:38.093Z,95.00
2023-04-27T07:32:08.818Z,92.70
2023-04-27T07:34:49.107Z,92.20
2023-04-27T07:37:19.954Z,91.90
2023-04-27T07:39:47.404Z,91.70
2023-04-27T07:42:15.228Z,92.50
2023-04-27T07:44:42.568Z,93.10
2023-04-27T07:47:09.377Z,92.80
2023-04-27T07:49:37.291Z,92.80
2023-04-27T07:52:04.659Z,93.10
2023-04-27T07:54:31.592Z,93.50
2023-04-27T07:56:58.516Z,94.10
2023-04-27T07:59:28.472Z,94.40
2023-04-27T08:02:10.840Z,94.00
2023-04-27T08:04:44.593Z,93.80
2023-04-27T08:07:11.893Z,93.40
2023-04-27T08:09:38.604Z,92.90
2023-04-27T08:12:05.367Z,93.10
2023-04-27T08:14:35.159Z,92.60
2023-04-27T08:17:02.251Z,92.90
2023-04-27T08:19:29.500Z,93.20
2023-04-27T08:21:56.115Z,93.20
2023-04-27T08:24:22.717Z,93.00
2023-04-27T08:26:49.298Z,92.90
2023-04-27T08:29:27.187Z,92.50
2023-04-27T08:31:59.405Z,92.30
2023-04-27T08:34:26.834Z,92.20
2023-04-27T08:36:54.185Z,92.20
2023-04-27T08:39:21.372Z,91.90
2023-04-27T08:41:47.932Z,92.30
2023-04-27T08:44:15.537Z,92.80
2023-04-27T08:46:42.418Z,93.20
2023-04-27T08:49:09.959Z,93.80
2023-04-27T08:51:36.767Z,93.90
2023-04-27T08:54:03.520Z,93.90
2023-04-27T08:56:30.877Z,94.00
2023-04-27T08:58:58.687Z,93.90
2023-04-27T09:01:27.343Z,93.40
2023-04-27T09:03:58.731Z,92.80
2023-04-27T09:06:35.827Z,92.30
2023-04-27T09:09:03.556Z,91.60
2023-04-27T09:11:39.669Z,91.90
2023-04-27T09:14:22.629Z,92.20
2023-04-27T09:16:57.647Z,92.30
2023-04-27T09:19:26.349Z,92.40
2023-04-27T09:22:15.395Z,92.80
2023-04-27T09:24:52.211Z,93.40
2023-04-27T09:27:22.046Z,93.50
2023-04-27T09:29:48.760Z,93.10
2023-04-27T09:32:17.367Z,93.10
2023-04-27T09:34:44.401Z,92.30
2023-04-27T09:37:11.254Z,91.90
2023-04-27T09:39:38.578Z,92.10
2023-04-27T09:42:05.854Z,91.40
2023-04-27T09:44:33.277Z,92.20
2023-04-27T09:47:00.800Z,92.80
2023-04-27T09:49:31.345Z,93.00
2023-04-27T09:51:58.821Z,92.40
2023-04-27T09:54:30.017Z,90.10
2023-04-27T09:57:28.444Z,89.00
2023-04-27T10:00:22.278Z,89.00
2023-04-27T10:03:25.384Z,89.40
2023-04-27T10:06:29.718Z,90.20
2023-04-27T10:08:57.405Z,90.90
2023-04-27T10:11:38.981Z,91.40
2023-04-27T10:14:10.892Z,91.40
2023-04-27T10:16:46.508Z,92.10
2023-04-27T10:19:13.995Z,91.90
2023-04-27T10:22:00.409Z,91.00
2023-04-27T10:24:38.015Z,86.10
2023-04-27T10:27:07.821Z,85.60
2023-04-27T10:29:45.985Z,86.90
2023-04-27T10:32:25.191Z,85.80
2023-04-27T10:35:03.930Z,83.90
2023-04-27T10:37:44.130Z,83.90
2023-04-27T10:40:17.394Z,84.00
2023-04-27T10:42:49.410Z,85.00
2023-04-27T10:45:30.928Z,85.50
2023-04-27T10:48:01.320Z,83.90
2023-04-27T10:50:28.300Z,82.50
2023-04-27T10:53:01.001Z,82.30
2023-04-27T10:55:27.758Z,82.80
2023-04-27T10:57:56.006Z,80.60
2023-04-27T11:00:27.889Z,79.10
2023-04-27T11:02:56.161Z,78.30
2023-04-27T11:05:25.218Z,78.20
2023-04-27T11:07:52.573Z,76.90
2023-04-27T11:10:19.470Z,76.90
2023-04-27T11:12:46.836Z,76.50
2023-04-27T11:15:14.211Z,76.60
2023-04-27T11:17:41.558Z,78.00
2023-04-27T11:20:09.053Z,79.00
2023-04-27T11:22:45.714Z,80.60
2023-04-27T11:25:12.796Z,81.60
2023-04-27T11:27:40.845Z,82.40
2023-04-27T11:30:19.514Z,83.10
2023-04-27T11:32:46.260Z,83.30
2023-04-27T11:35:13.786Z,81.90
2023-04-27T11:37:40.749Z,80.90
2023-04-27T11:40:09.806Z,80.70
2023-04-27T11:42:36.510Z,80.50
2023-04-27T11:45:06.930Z,79.80
2023-04-27T11:47:35.448Z,79.00
2023-04-27T11:50:05.712Z,79.20
2023-04-27T11:52:33.816Z,79.10
2023-04-27T11:55:01.877Z,78.90
2023-04-27T11:57:31.417Z,76.90
2023-04-27T12:00:00.350Z,76.80
2023-04-27T12:02:31.543Z,76.40
2023-04-27T12:04:59.716Z,75.90
2023-04-27T12:07:26.951Z,75.90
2023-04-27T12:09:53.585Z,74.60
2023-04-27T12:12:22.500Z,76.00
2023-04-27T12:14:49.688Z,76.80
2023-04-27T12:17:16.486Z,77.40
2023-04-27T12:19:43.181Z,77.50
2023-04-27T12:22:10.125Z,77.80
2023-04-27T12:24:37.292Z,79.30
2023-04-27T12:27:04.453Z,79.80
2023-04-27T12:29:34.163Z,78.70
2023-04-27T12:32:00.851Z,78.90
2023-04-27T12:34:28.458Z,79.30
2023-04-27T12:36:55.067Z,79.00
2023-04-27T12:39:25.324Z,78.40
2023-04-27T12:41:53.246Z,77.10
2023-04-27T12:44:21.263Z,77.20
2023-04-27T12:46:48.464Z,77.10
2023-04-27T12:49:15.404Z,78.30
2023-04-27T12:51:43.405Z,79.00
2023-04-27T12:54:12.395Z,79.30
2023-04-27T12:56:39.541Z,78.20
2023-04-27T12:59:06.216Z,77.40
2023-04-27T13:01:33.255Z,75.50
2023-04-27T13:04:03.960Z,73.80
2023-04-27T13:06:32.101Z,72.90
2023-04-27T13:09:02.530Z,73.00
2023-04-27T13:11:29.191Z,73.90
2023-04-27T13:13:55.962Z,74.00
2023-04-27T13:16:25.218Z,74.40
2023-04-27T13:18:53.305Z,73.30
2023-04-27T13:21:20.425Z,72.50
2023-04-27T13:23:47.900Z,70.70
2023-04-27T13:26:16.236Z,70.50
2023-04-27T13:28:43.211Z,71.70
2023-04-27T13:31:11.096Z,72.50
2023-04-27T13:33:44.871Z,73.20
2023-04-27T13:36:13.142Z,73.10
2023-04-27T13:38:42.756Z,73.60
2023-04-27T13:41:09.668Z,74.40
2023-04-27T13:43:36.334Z,74.00
2023-04-27T13:46:03.349Z,73.40
2023-04-27T13:48:30.901Z,73.20
2023-04-27T13:50:58.337Z,73.70
2023-04-27T13:53:25.854Z,73.80
2023-04-27T13:55:56.822Z,73.50
2023-04-27T13:58:25.748Z,72.50
2023-04-27T14:00:53.460Z,72.00
2023-04-27T14:03:23.474Z,71.30
2023-04-27T14:05:51.661Z,72.00
2023-04-27T14:08:18.777Z,72.00
2023-04-27T14:10:46.164Z,71.70
2023-04-27T14:13:18.814Z,71.50
2023-04-27T14:15:45.834Z,72.20
2023-04-27T14:18:12.954Z,72.70
2023-04-27T14:20:41.950Z,73.00
2023-04-27T14:23:09.277Z,72.80
2023-04-27T14:25:36.227Z,73.10
2023-04-27T14:28:04.512Z,73.00
2023-04-27T14:30:34.983Z,73.80
2023-04-27T14:33:02.430Z,74.20
2023-04-27T14:35:29.238Z,73.30
2023-04-27T14:38:01.831Z,73.10
2023-04-27T14:40:30.019Z,71.60
2023-04-27T14:42:56.697Z,70.70
2023-04-27T14:45:24.326Z,70.60
2023-04-27T14:47:51.246Z,70.60
2023-04-27T14:50:18.055Z,70.50
2023-04-27T14:52:44.679Z,70.60
2023-04-27T14:55:13.409Z,71.40
2023-04-27T14:57:40.040Z,71.10
2023-04-27T15:00:10.100Z,70.80
2023-04-27T15:02:41.171Z,70.30
2023-04-27T15:05:08.870Z,69.60
2023-04-27T15:07:36.121Z,68.60
2023-04-27T15:10:03.201Z,69.10
2023-04-27T15:12:30.154Z,70.00
2023-04-27T15:14:56.885Z,71.00
2023-04-27T15:17:24.108Z,71.60
2023-04-27T15:19:51.909Z,72.30
2023-04-27T15:22:18.649Z,73.00
2023-04-27T15:24:45.336Z,72.90
2023-04-27T15:27:11.948Z,73.30
2023-04-27T15:29:38.636Z,73.40
2023-04-27T15:32:06.031Z,72.80
2023-04-27T15:34:33.421Z,72.30
2023-04-27T15:36:59.964Z,72.00
2023-04-27T15:39:28.320Z,72.20
2023-04-27T15:41:56.633Z,71.80
2023-04-27T15:44:23.182Z,72.70
2023-04-27T15:46:49.863Z,72.60
2023-04-27T15:49:16.702Z,72.60
2023-04-27T15:51:43.420Z,72.40
2023-04-27T15:54:10.186Z,72.60
2023-04-27T15:56:36.818Z,71.80
2023-04-27T15:59:04.540Z,71.90
2023-04-27T16:01:31.297Z,70.50
2023-04-27T16:04:01.438Z,70.50
2023-04-27T16:06:35.835Z,69.40
2023-04-27T16:09:34.491Z,69.40
2023-04-27T16:12:01.893Z,66.90
2023-04-27T16:14:28.526Z,66.20
2023-04-27T16:17:03.404Z,66.80
2023-04-27T16:19:30.262Z,67.80
2023-04-27T16:21:56.979Z,66.90
2023-04-27T16:24:25.581Z,65.70
2023-04-27T16:26:52.405Z,66.70
2023-04-27T16:29:18.996Z,66.60
2023-04-27T16:31:48.936Z,66.80
2023-04-27T16:34:15.924Z,66.70
2023-04-27T16:36:43.281Z,67.10
2023-04-27T16:39:10.721Z,66.90
2023-04-27T16:41:37.296Z,67.80
2023-04-27T16:44:04.010Z,68.80
2023-04-27T16:46:30.978Z,69.00
2023-04-27T16:48:57.660Z,68.90
2023-04-27T16:51:24.448Z,68.60
2023-04-27T16:53:51.176Z,68.10
2023-04-27T16:56:29.493Z,67.20
2023-04-27T16:58:56.397Z,67.10
2023-04-27T17:01:26.984Z,67.40
2023-04-27T17:03:53.895Z,67.50
2023-04-27T17:06:20.606Z,67.30
2023-04-27T17:08:47.177Z,67.00
2023-04-27T17:11:14.488Z,67.50
2023-04-27T17:13:41.388Z,68.00
2023-04-27T17:16:11.610Z,68.40
2023-04-27T17:18:38.276Z,68.50
2023-04-27T17:21:05.368Z,69.10
2023-04-27T17:23:33.763Z,69.00
2023-04-27T17:26:00.556Z,69.60
2023-04-27T17:28:27.357Z,69.70
2023-04-27T17:30:53.945Z,68.80
2023-04-27T17:33:20.508Z,68.90
2023-04-27T17:35:49.964Z,69.40
2023-04-27T17:38:16.761Z,69.40
2023-04-27T17:40:44.323Z,69.80
2023-04-27T17:43:11.092Z,69.90
2023-04-27T17:45:38.245Z,70.40
2023-04-27T17:48:05.603Z,70.40
2023-04-27T17:50:34.482Z,70.40
2023-04-27T17:53:02.045Z,70.30
2023-04-27T17:55:29.085Z,70.60
2023-04-27T17:57:55.673Z,71.00
2023-04-27T18:00:22.925Z,71.20
2023-04-27T18:02:50.203Z,71.30
2023-04-27T18:05:17.256Z,71.80
2023-04-27T18:07:46.110Z,72.00
2023-04-27T18:10:13.055Z,72.30
2023-04-27T18:12:39.681Z,72.70
2023-04-27T18:15:09.403Z,73.00
2023-04-27T18:17:36.625Z,73.40
2023-04-27T18:20:09.415Z,73.90
2023-04-27T18:22:37.808Z,74.20
2023-04-27T18:25:04.763Z,74.20
2023-04-27T18:27:32.737Z,74.60
2023-04-27T18:29:59.588Z,74.70
2023-04-27T18:32:26.281Z,75.00
2023-04-27T18:34:53.930Z,75.40
2023-04-27T18:37:20.547Z,75.70
2023-04-27T18:39:47.176Z,76.30
2023-04-27T18:42:13.823Z,76.40
2023-04-27T18:44:40.601Z,76.70
2023-04-27T18:47:07.865Z,77.00
2023-04-27T18:49:34.674Z,77.20
2023-04-27T18:52:01.578Z,77.20
2023-04-27T18:54:28.208Z,77.30
2023-04-27T18:56:54.947Z,77.20
2023-04-27T18:59:21.621Z,77.20
2023-04-27T19:01:48.534Z,77.90
2023-04-27T19:04:16.436Z,78.50
2023-04-27T19:06:43.157Z,78.90
2023-04-27T19:09:10.129Z,78.70
2023-04-27T19:11:36.835Z,79.10
2023-04-27T19:14:03.483Z,79.30
2023-04-27T19:16:30.336Z,80.60
2023-04-27T19:18:57.125Z,80.90
2023-04-27T19:21:23.751Z,80.80
2023-04-27T19:23:50.657Z,81.30
2023-04-27T19:26:17.271Z,81.30
2023-04-27T19:28:43.966Z,81.10
2023-04-27T19:31:10.772Z,81.50
2023-04-27T19:33:37.614Z,81.90
2023-04-27T19:36:04.602Z,82.10
2023-04-27T19:38:31.282Z,82.10
2023-04-27T19:40:57.851Z,82.50
2023-04-27T19:43:24.465Z,82.70
2023-04-27T19:45:51.251Z,83.00
2023-04-27T19:48:18.083Z,83.40
2023-04-27T19:50:44.671Z,84.10
2023-04-27T19:53:11.353Z,84.50
2023-04-27T19:55:39.048Z,84.90
2023-04-27T19:58:05.897Z,85.00
2023-04-27T20:00:33.253Z,85.20
2023-04-27T20:02:59.923Z,85.40
2023-04-27T20:05:26.976Z,85.90
2023-04-27T20:07:53.762Z,85.80
2023-04-27T20:10:21.159Z,85.80
2023-04-27T20:12:56.194Z,85.90
2023-04-27T20:15:23.986Z,86.30
2023-04-27T20:17:50.773Z,86.50
2023-04-27T20:20:18.181Z,86.60
2023-04-27T20:22:45.030Z,86.80
2023-04-27T20:25:14.402Z,88.10
2023-04-27T20:27:41.220Z,88.60
2023-04-27T20:30:08.468Z,88.40
2023-04-27T20:32:44.528Z,88.40
2023-04-27T20:35:11.411Z,88.70
2023-04-27T20:37:39.253Z,89.10
2023-04-27T20:40:07.715Z,89.60
2023-04-27T20:42:34.570Z,90.00
2023-04-27T20:45:01.294Z,90.40
2023-04-27T20:47:27.959Z,90.30
2023-04-27T20:49:54.551Z,90.40
2023-04-27T20:52:21.162Z,90.80
2023-04-27T20:54:47.744Z,91.00
2023-04-27T20:57:14.519Z,91.10
2023-04-27T20:59:41.559Z,91.00
2023-04-27T21:02:08.322Z,91.50
2023-04-27T21:04:35.269Z,91.30
2023-04-27T21:07:01.997Z,92.00
2023-04-27T21:09:28.648Z,92.20
2023-04-27T21:11:55.304Z,92.40
2023-04-27T21:14:21.940Z,92.40
2023-04-27T21:16:48.587Z,92.20
2023-04-27T21:19:16.555Z,92.20
2023-04-27T21:21:43.259Z,92.40
2023-04-27T21:24:09.834Z,92.70
2023-04-27T21:26:36.655Z,92.90
2023-04-27T21:29:05.490Z,93.00
2023-04-27T21:31:33.226Z,93.10
2023-04-27T21:34:00.221Z,93.10
2023-04-27T21:36:26.864Z,93.20
2023-04-27T21:38:53.582Z,93.30
2023-04-27T21:41:20.308Z,93.40
2023-04-27T21:43:46.914Z,93.40
2023-04-27T21:46:13.546Z,93.90
2023-04-27T21:48:40.263Z,93.90
2023-04-27T21:51:06.828Z,93.80
2023-04-27T21:53:33.375Z,93.80
2023-04-27T21:56:00.514Z,94.00
2023-04-27T21:58:27.116Z,94.30
2023-04-27T22:00:53.777Z,94.60
2023-04-27T22:03:21.580Z,94.70
2023-04-27T22:05:52.772Z,94.90
2023-04-27T22:08:19.666Z,95.20
2023-04-27T22:10:47.037Z,95.70
2023-04-27T22:15:43.237Z,95.90
2023-04-27T22:18:09.937Z,95.70
2023-04-27T22:20:37.236Z,96.10
2023-04-27T22:23:03.882Z,96.40
2023-04-27T22:25:31.087Z,96.50
2023-04-27T22:27:57.663Z,96.60
2023-04-27T22:30:24.548Z,96.50
2023-04-27T22:32:51.936Z,97.10
2023-04-27T22:35:26.600Z,97.40
2023-04-27T22:38:00.342Z,97.20
2023-04-27T22:40:26.934Z,97.20
2023-04-27T22:42:54.999Z,97.20
2023-04-27T22:45:22.659Z,97.30
2023-04-27T22:47:49.471Z,97.40
2023-04-27T22:50:16.679Z,97.60
2023-04-27T22:52:43.428Z,97.70
2023-04-27T22:55:11.340Z,98.20
2023-04-27T22:57:38.641Z,98.00
2023-04-27T23:00:06.068Z,98.00
2023-04-27T23:02:32.828Z,98.10
2023-04-27T23:04:59.509Z,98.30
2023-04-27T23:07:26.123Z,98.50
2023-04-27T23:09:54.752Z,98.10
2023-04-27T23:12:21.969Z,98.00
2023-04-27T23:14:48.553Z,97.90
2023-04-27T23:17:15.451Z,98.10
2023-04-27T23:19:42.158Z,98.30
2023-04-27T23:22:08.728Z,98.60
2023-04-27T23:24:35.363Z,98.80
2023-04-27T23:27:01.984Z,98.80
2023-04-27T23:29:30.124Z,98.90
2023-04-27T23:32:03.795Z,98.90
2023-04-27T23:34:33.885Z,99.00
2023-04-27T23:37:00.759Z,98.90
2023-04-27T23:39:27.948Z,98.90
2023-04-27T23:41:54.565Z,98.70
2023-04-27T23:44:21.426Z,98.70
2023-04-27T23:46:48.071Z,98.50
2023-04-27T23:49:14.727Z,98.40
2023-04-27T23:51:41.460Z,98.70
2023-04-27T23:54:08.096Z,98.80
2023-04-27T23:56:34.706Z,99.00
2023-04-27T23:59:01.270Z,98.90
